sensor_id;sensor_type;location;lat;lon;timestamp;pressure;altitude;pressure_sealevel;temperature;humidity
71774;BME280;59607;52.130;5.430;2023-04-04T00:01:15;103204.53;;;2.56;69.03
71774;BME280;59607;52.130;5.430;2023-04-04T00:03:42;103197.66;;;2.55;69.26
71774;BME280;59607;52.130;5.430;2023-04-04T00:06:23;103199.53;;;2.50;69.45
71774;BME280;59607;52.130;5.430;2023-04-04T00:09:13;103195.31;;;2.47;70.10
71774;BME280;59607;52.130;5.430;2023-04-04T00:11:41;103196.25;;;2.45;70.16
71774;BME280;59607;52.130;5.430;2023-04-04T00:14:12;103189.44;;;2.42;69.89
71774;BME280;59607;52.130;5.430;2023-04-04T00:16:40;103185.13;;;2.43;70.57
71774;BME280;59607;52.130;5.430;2023-04-04T00:19:07;103182.63;;;2.40;70.26
71774;BME280;59607;52.130;5.430;2023-04-04T00:21:34;103176.69;;;2.36;70.76
71774;BME280;59607;52.130;5.430;2023-04-04T00:24:02;103177.59;;;2.35;70.85
71774;BME280;59607;52.130;5.430;2023-04-04T00:26:31;103169.06;;;2.31;70.59
71774;BME280;59607;52.130;5.430;2023-04-04T00:29:03;103169.94;;;2.32;70.87
71774;BME280;59607;52.130;5.430;2023-04-04T00:31:30;103174.31;;;2.30;71.25
71774;BME280;59607;52.130;5.430;2023-04-04T00:33:56;103165.69;;;2.29;70.88
71774;BME280;59607;52.130;5.430;2023-04-04T00:36:23;103159.66;;;2.29;71.32
71774;BME280;59607;52.130;5.430;2023-04-04T00:38:54;103155.44;;;2.26;71.74
71774;BME280;59607;52.130;5.430;2023-04-04T00:41:20;103162.34;;;2.26;71.87
71774;BME280;59607;52.130;5.430;2023-04-04T00:43:53;103166.75;;;2.24;72.29
71774;BME280;59607;52.130;5.430;2023-04-04T00:46:22;103172.78;;;2.22;72.45
71774;BME280;59607;52.130;5.430;2023-04-04T00:48:50;103169.47;;;2.19;72.89
71774;BME280;59607;52.130;5.430;2023-04-04T00:51:22;103166.97;;;2.16;72.32
71774;BME280;59607;52.130;5.430;2023-04-04T00:53:49;103170.34;;;2.18;73.26
71774;BME280;59607;52.130;5.430;2023-04-04T00:56:24;103164.38;;;2.16;73.47
71774;BME280;59607;52.130;5.430;2023-04-04T00:58:50;103170.34;;;2.18;74.09
71774;BME280;59607;52.130;5.430;2023-04-04T01:01:23;103168.69;;;2.17;73.25
71774;BME280;59607;52.130;5.430;2023-04-04T01:03:57;103160.34;;;2.07;72.98
71774;BME280;59607;52.130;5.430;2023-04-04T01:06:39;103168.38;;;1.99;74.43
71774;BME280;59607;52.130;5.430;2023-04-04T01:09:11;103162.22;;;2.02;74.52
71774;BME280;59607;52.130;5.430;2023-04-04T01:11:38;103166.69;;;1.96;74.39
71774;BME280;59607;52.130;5.430;2023-04-04T01:14:04;103167.66;;;1.94;75.12
71774;BME280;59607;52.130;5.430;2023-04-04T01:16:37;103166.78;;;1.93;75.81
71774;BME280;59607;52.130;5.430;2023-04-04T01:19:10;103166.84;;;1.92;76.50
71774;BME280;59607;52.130;5.430;2023-04-04T01:21:41;103156.59;;;1.89;76.76
71774;BME280;59607;52.130;5.430;2023-04-04T01:24:11;103157.34;;;1.92;77.19
71774;BME280;59607;52.130;5.430;2023-04-04T01:26:43;103161.66;;;1.92;77.41
71774;BME280;59607;52.130;5.430;2023-04-04T01:29:15;103161.72;;;1.90;77.77
71774;BME280;59607;52.130;5.430;2023-04-04T01:31:57;103165.31;;;1.86;78.20
71774;BME280;59607;52.130;5.430;2023-04-04T01:38:17;103162.88;;;1.81;76.87
71774;BME280;59607;52.130;5.430;2023-04-04T01:40:40;103160.53;;;1.72;76.72
71774;BME280;59607;52.130;5.430;2023-04-04T01:43:20;103165.13;;;1.64;77.39
71774;BME280;59607;52.130;5.430;2023-04-04T01:45:53;103164.25;;;1.63;77.85
71774;BME280;59607;52.130;5.430;2023-04-04T01:48:20;103170.19;;;1.67;79.08
71774;BME280;59607;52.130;5.430;2023-04-04T01:50:50;103167.47;;;1.71;79.07
71774;BME280;59607;52.130;5.430;2023-04-04T01:53:16;103163.22;;;1.69;78.45
71774;BME280;59607;52.130;5.430;2023-04-04T01:55:43;103167.75;;;1.62;79.20
71774;BME280;59607;52.130;5.430;2023-04-04T01:58:09;103165.06;;;1.65;78.42
71774;BME280;59607;52.130;5.430;2023-04-04T02:00:45;103164.44;;;1.57;77.76
71774;BME280;59607;52.130;5.430;2023-04-04T02:03:11;103157.88;;;1.45;79.05
71774;BME280;59607;52.130;5.430;2023-04-04T02:05:45;103164.09;;;1.39;79.13
71774;BME280;59607;52.130;5.430;2023-04-04T02:08:12;103165.91;;;1.35;79.74
71774;BME280;59607;52.130;5.430;2023-04-04T02:10:41;103160.56;;;1.42;81.02
71774;BME280;59607;52.130;5.430;2023-04-04T02:13:13;103172.56;;;1.44;81.11
71774;BME280;59607;52.130;5.430;2023-04-04T02:15:41;103166.09;;;1.29;80.55
71774;BME280;59607;52.130;5.430;2023-04-04T02:18:10;103171.59;;;1.17;81.34
71774;BME280;59607;52.130;5.430;2023-04-04T02:20:37;103175.09;;;1.14;81.46
71774;BME280;59607;52.130;5.430;2023-04-04T02:23:10;103174.09;;;1.20;82.61
71774;BME280;59607;52.130;5.430;2023-04-04T02:25:38;103179.00;;;1.29;82.61
71774;BME280;59607;52.130;5.430;2023-04-04T02:28:06;103178.88;;;1.34;83.41
71774;BME280;59607;52.130;5.430;2023-04-04T02:30:38;103181.41;;;1.35;83.07
71774;BME280;59607;52.130;5.430;2023-04-04T02:33:04;103173.75;;;1.32;83.22
71774;BME280;59607;52.130;5.430;2023-04-04T02:35:31;103175.69;;;1.24;82.38
71774;BME280;59607;52.130;5.430;2023-04-04T02:38:04;103168.28;;;1.12;81.98
71774;BME280;59607;52.130;5.430;2023-04-04T02:40:30;103167.53;;;1.08;81.65
71774;BME280;59607;52.130;5.430;2023-04-04T02:43:05;103160.78;;;1.02;81.54
71774;BME280;59607;52.130;5.430;2023-04-04T02:45:31;103153.91;;;1.01;81.34
71774;BME280;59607;52.130;5.430;2023-04-04T02:48:00;103150.50;;;0.99;83.44
71774;BME280;59607;52.130;5.430;2023-04-04T02:50:38;103155.53;;;1.05;83.72
71774;BME280;59607;52.130;5.430;2023-04-04T02:53:07;103142.75;;;0.99;84.45
71774;BME280;59607;52.130;5.430;2023-04-04T02:55:37;103147.16;;;0.97;84.94
71774;BME280;59607;52.130;5.430;2023-04-04T02:58:09;103143.75;;;0.95;85.78
71774;BME280;59607;52.130;5.430;2023-04-04T03:00:38;103147.97;;;0.97;86.00
71774;BME280;59607;52.130;5.430;2023-04-04T03:03:12;103142.75;;;0.99;86.24
71774;BME280;59607;52.130;5.430;2023-04-04T03:05:38;103140.38;;;0.91;85.92
71774;BME280;59607;52.130;5.430;2023-04-04T03:08:05;103152.53;;;0.89;85.77
71774;BME280;59607;52.130;5.430;2023-04-04T03:10:32;103137.06;;;0.88;86.43
71774;BME280;59607;52.130;5.430;2023-04-04T03:13:03;103137.94;;;0.86;86.92
71774;BME280;59607;52.130;5.430;2023-04-04T03:15:30;103152.44;;;0.92;87.03
71774;BME280;59607;52.130;5.430;2023-04-04T03:18:00;103147.28;;;0.92;86.48
71774;BME280;59607;52.130;5.430;2023-04-04T03:20:27;103149.25;;;0.82;86.92
71774;BME280;59607;52.130;5.430;2023-04-04T03:22:53;103152.69;;;0.81;87.39
71774;BME280;59607;52.130;5.430;2023-04-04T03:25:23;103146.63;;;0.84;87.20
71774;BME280;59607;52.130;5.430;2023-04-04T03:27:50;103143.16;;;0.85;86.97
71774;BME280;59607;52.130;5.430;2023-04-04T03:30:17;103139.03;;;0.78;87.43
71774;BME280;59607;52.130;5.430;2023-04-04T03:32:49;103136.50;;;0.76;88.35
71774;BME280;59607;52.130;5.430;2023-04-04T03:35:19;103140.91;;;0.72;88.09
71774;BME280;59607;52.130;5.430;2023-04-04T03:37:46;103135.28;;;0.56;88.16
71774;BME280;59607;52.130;5.430;2023-04-04T03:40:18;103125.97;;;0.49;88.79
71774;BME280;59607;52.130;5.430;2023-04-04T03:42:45;103127.66;;;0.52;89.56
71774;BME280;59607;52.130;5.430;2023-04-04T03:45:14;103130.00;;;0.61;89.64
71774;BME280;59607;52.130;5.430;2023-04-04T03:47:44;103129.13;;;0.60;89.94
71774;BME280;59607;52.130;5.430;2023-04-04T03:50:14;103136.81;;;0.64;89.50
71774;BME280;59607;52.130;5.430;2023-04-04T03:52:45;103134.19;;;0.65;89.20
71774;BME280;59607;52.130;5.430;2023-04-04T03:55:12;103130.97;;;0.55;89.24
71774;BME280;59607;52.130;5.430;2023-04-04T03:57:39;103118.72;;;0.64;90.49
71774;BME280;59607;52.130;5.430;2023-04-04T04:00:12;103134.09;;;0.68;90.38
71774;BME280;59607;52.130;5.430;2023-04-04T04:02:43;103125.59;;;0.65;89.70
71774;BME280;59607;52.130;5.430;2023-04-04T04:05:17;103136.09;;;0.58;90.03
71774;BME280;59607;52.130;5.430;2023-04-04T04:07:49;103147.44;;;0.51;88.70
71774;BME280;59607;52.130;5.430;2023-04-04T04:10:21;103140.09;;;0.35;88.26
71774;BME280;59607;52.130;5.430;2023-04-04T04:12:50;103139.25;;;0.35;89.06
71774;BME280;59607;52.130;5.430;2023-04-04T04:15:17;103141.66;;;0.41;89.93
71774;BME280;59607;52.130;5.430;2023-04-04T04:17:44;103149.28;;;0.46;90.05
71774;BME280;59607;52.130;5.430;2023-04-04T04:20:13;103151.84;;;0.47;90.28
71774;BME280;59607;52.130;5.430;2023-04-04T04:22:45;103145.06;;;0.43;90.17
71774;BME280;59607;52.130;5.430;2023-04-04T04:25:13;103139.31;;;0.32;90.77
71774;BME280;59607;52.130;5.430;2023-04-04T04:27:45;103146.22;;;0.31;91.04
71774;BME280;59607;52.130;5.430;2023-04-04T04:30:11;103147.19;;;0.27;90.77
71774;BME280;59607;52.130;5.430;2023-04-04T04:32:41;103134.16;;;0.32;90.41
71774;BME280;59607;52.130;5.430;2023-04-04T04:35:24;103139.50;;;0.24;89.44
71774;BME280;59607;52.130;5.430;2023-04-04T04:37:50;103140.47;;;0.20;91.06
71774;BME280;59607;52.130;5.430;2023-04-04T04:40:17;103145.41;;;0.29;91.62
71774;BME280;59607;52.130;5.430;2023-04-04T04:42:45;103142.81;;;0.31;91.14
71774;BME280;59607;52.130;5.430;2023-04-04T04:45:18;103138.53;;;0.28;90.69
71774;BME280;59607;52.130;5.430;2023-04-04T04:47:46;103138.53;;;0.28;91.59
71774;BME280;59607;52.130;5.430;2023-04-04T04:50:13;103143.03;;;0.20;90.11
71774;BME280;59607;52.130;5.430;2023-04-04T04:52:39;103138.97;;;0.11;91.12
71774;BME280;59607;52.130;5.430;2023-04-04T04:55:06;103155.22;;;0.13;91.53
71774;BME280;59607;52.130;5.430;2023-04-04T04:57:33;103148.13;;;0.23;93.33
71774;BME280;59607;52.130;5.430;2023-04-04T05:00:19;103159.22;;;0.27;92.75
71774;BME280;59607;52.130;5.430;2023-04-04T05:02:54;103156.59;;;0.28;92.88
71774;BME280;59607;52.130;5.430;2023-04-04T05:05:27;103149.56;;;0.35;93.29
71774;BME280;59607;52.130;5.430;2023-04-04T05:07:53;103152.81;;;0.43;94.07
71774;BME280;59607;52.130;5.430;2023-04-04T05:10:20;103155.47;;;0.40;93.28
71774;BME280;59607;52.130;5.430;2023-04-04T05:12:47;103149.56;;;0.35;92.33
71774;BME280;59607;52.130;5.430;2023-04-04T05:15:16;103154.94;;;0.27;91.55
71774;BME280;59607;52.130;5.430;2023-04-04T05:17:54;103151.34;;;0.33;92.72
71774;BME280;59607;52.130;5.430;2023-04-04T05:20:21;103155.31;;;0.46;93.29
71774;BME280;59607;52.130;5.430;2023-04-04T05:22:57;103151.66;;;0.55;92.29
71774;BME280;59607;52.130;5.430;2023-04-04T05:25:23;103159.53;;;0.49;90.09
71774;BME280;59607;52.130;5.430;2023-04-04T05:27:50;103156.41;;;0.72;90.48
71774;BME280;59607;52.130;5.430;2023-04-04T05:30:22;103160.66;;;1.07;88.82
71774;BME280;59607;52.130;5.430;2023-04-04T05:32:50;103146.47;;;1.81;88.56
71774;BME280;59607;52.130;5.430;2023-04-04T05:35:20;103143.16;;;2.58;83.17
71774;BME280;59607;52.130;5.430;2023-04-04T05:37:49;103140.44;;;2.87;80.20
71774;BME280;59607;52.130;5.430;2023-04-04T05:40:15;103146.72;;;3.53;78.37
71774;BME280;59607;52.130;5.430;2023-04-04T05:43:03;103144.19;;;3.97;76.22
71774;BME280;59607;52.130;5.430;2023-04-04T05:45:31;103152.28;;;4.32;74.10
71774;BME280;59607;52.130;5.430;2023-04-04T05:47:58;103135.69;;;4.14;72.50
71774;BME280;59607;52.130;5.430;2023-04-04T05:50:35;103141.59;;;3.74;72.48
71774;BME280;59607;52.130;5.430;2023-04-04T05:53:02;103143.72;;;3.16;73.81
71774;BME280;59607;52.130;5.430;2023-04-04T05:55:35;103153.66;;;3.05;74.77
71774;BME280;59607;52.130;5.430;2023-04-04T05:58:02;103144.03;;;3.32;76.10
71774;BME280;59607;52.130;5.430;2023-04-04T06:00:28;103153.72;;;3.96;75.09
71774;BME280;59607;52.130;5.430;2023-04-04T06:03:01;103146.88;;;4.99;72.73
71774;BME280;59607;52.130;5.430;2023-04-04T06:05:28;103143.41;;;6.66;67.87
71774;BME280;59607;52.130;5.430;2023-04-04T06:07:57;103133.09;;;8.24;63.20
71774;BME280;59607;52.130;5.430;2023-04-04T06:10:23;103118.69;;;9.06;59.05
71774;BME280;59607;52.130;5.430;2023-04-04T06:12:50;103128.94;;;9.52;56.74
71774;BME280;59607;52.130;5.430;2023-04-04T06:15:22;103144.00;;;8.62;56.65
71774;BME280;59607;52.130;5.430;2023-04-04T06:17:57;103139.19;;;7.78;57.40
71774;BME280;59607;52.130;5.430;2023-04-04T06:20:25;103146.94;;;6.47;59.56
71774;BME280;59607;52.130;5.430;2023-04-04T06:22:51;103152.88;;;5.40;62.51
71774;BME280;59607;52.130;5.430;2023-04-04T06:25:18;103153.47;;;4.66;64.77
71774;BME280;59607;52.130;5.430;2023-04-04T06:27:49;103139.88;;;4.18;67.11
71774;BME280;59607;52.130;5.430;2023-04-04T06:30:15;103138.06;;;3.98;68.76
71774;BME280;59607;52.130;5.430;2023-04-04T06:32:43;103137.91;;;3.80;69.73
71774;BME280;59607;52.130;5.430;2023-04-04T06:35:19;103148.78;;;3.67;70.87
71774;BME280;59607;52.130;5.430;2023-04-04T06:37:45;103148.78;;;3.67;71.59
71774;BME280;59607;52.130;5.430;2023-04-04T06:40:13;103152.66;;;3.79;71.79
71774;BME280;59607;52.130;5.430;2023-04-04T06:42:47;103157.41;;;3.68;72.29
71774;BME280;59607;52.130;5.430;2023-04-04T06:45:15;103164.03;;;3.75;73.05
71774;BME280;59607;52.130;5.430;2023-04-04T06:47:45;103161.38;;;3.77;72.39
71774;BME280;59607;52.130;5.430;2023-04-04T06:50:12;103165.31;;;3.65;72.59
71774;BME280;59607;52.130;5.430;2023-04-04T06:52:38;103163.66;;;3.62;71.88
71774;BME280;59607;52.130;5.430;2023-04-04T06:55:22;103175.69;;;3.65;72.33
71774;BME280;59607;52.130;5.430;2023-04-04T06:57:51;103178.81;;;3.73;72.57
71774;BME280;59607;52.130;5.430;2023-04-04T07:00:18;103171.78;;;3.77;72.66
71774;BME280;59607;52.130;5.430;2023-04-04T07:02:44;103165.56;;;3.81;71.67
71774;BME280;59607;52.130;5.430;2023-04-04T07:05:11;103168.94;;;3.83;71.33
71774;BME280;59607;52.130;5.430;2023-04-04T07:07:43;103166.41;;;3.81;71.17
71774;BME280;59607;52.130;5.430;2023-04-04T07:10:18;103156.75;;;3.85;70.73
71774;BME280;59607;52.130;5.430;2023-04-04T07:12:44;103164.34;;;3.90;70.13
71774;BME280;59607;52.130;5.430;2023-04-04T07:15:11;103161.31;;;4.01;70.33
71774;BME280;59607;52.130;5.430;2023-04-04T07:17:52;103169.78;;;4.06;69.68
71774;BME280;59607;52.130;5.430;2023-04-04T07:20:35;103169.53;;;4.35;69.46
71774;BME280;59607;52.130;5.430;2023-04-04T07:23:08;103172.22;;;4.31;68.11
71774;BME280;59607;52.130;5.430;2023-04-04T07:25:37;103179.66;;;4.41;68.37
71774;BME280;59607;52.130;5.430;2023-04-04T07:28:12;103168.88;;;4.50;67.87
71774;BME280;59607;52.130;5.430;2023-04-04T07:30:42;103165.75;;;4.63;67.45
71774;BME280;59607;52.130;5.430;2023-04-04T07:33:11;103170.03;;;4.85;66.97
71774;BME280;59607;52.130;5.430;2023-04-04T07:35:37;103165.78;;;5.03;66.39
71774;BME280;59607;52.130;5.430;2023-04-04T07:38:07;103159.63;;;5.25;66.03
71774;BME280;59607;52.130;5.430;2023-04-04T07:40:36;103153.63;;;5.23;65.12
71774;BME280;59607;52.130;5.430;2023-04-04T07:43:03;103157.59;;;5.31;65.38
71774;BME280;59607;52.130;5.430;2023-04-04T07:45:38;103168.63;;;5.37;64.51
71774;BME280;59607;52.130;5.430;2023-04-04T07:48:05;103170.53;;;5.52;64.32
71774;BME280;59607;52.130;5.430;2023-04-04T07:50:32;103165.66;;;5.64;63.26
71774;BME280;59607;52.130;5.430;2023-04-04T07:53:03;103162.06;;;5.66;62.78
71774;BME280;59607;52.130;5.430;2023-04-04T07:55:29;103164.63;;;5.49;62.56
71774;BME280;59607;52.130;5.430;2023-04-04T07:57:56;103161.44;;;5.42;62.18
71774;BME280;59607;52.130;5.430;2023-04-04T08:00:28;103160.69;;;5.40;61.89
71774;BME280;59607;52.130;5.430;2023-04-04T08:02:55;103161.19;;;5.48;63.05
71774;BME280;59607;52.130;5.430;2023-04-04T08:05:27;103149.25;;;5.62;62.17
71774;BME280;59607;52.130;5.430;2023-04-04T08:07:57;103156.00;;;5.85;61.49
71774;BME280;59607;52.130;5.430;2023-04-04T08:10:24;103149.09;;;6.02;61.41
71774;BME280;59607;52.130;5.430;2023-04-04T08:12:56;103152.44;;;6.05;60.79
71774;BME280;59607;52.130;5.430;2023-04-04T08:15:22;103143.56;;;6.10;60.64
71774;BME280;59607;52.130;5.430;2023-04-04T08:17:57;103146.50;;;6.39;60.32
71774;BME280;59607;52.130;5.430;2023-04-04T08:20:24;103151.25;;;6.48;60.46
71774;BME280;59607;52.130;5.430;2023-04-04T08:22:56;103145.91;;;6.68;60.58
71774;BME280;59607;52.130;5.430;2023-04-04T08:25:27;103142.53;;;6.65;58.57
71774;BME280;59607;52.130;5.430;2023-04-04T08:28:03;103147.25;;;6.41;57.68
71774;BME280;59607;52.130;5.430;2023-04-04T08:30:30;103137.94;;;6.71;58.55
71774;BME280;59607;52.130;5.430;2023-04-04T08:33:07;103130.69;;;7.10;55.71
71774;BME280;59607;52.130;5.430;2023-04-04T08:35:34;103133.41;;;7.24;54.51
71774;BME280;59607;52.130;5.430;2023-04-04T08:38:04;103129.84;;;7.09;54.62
71774;BME280;59607;52.130;5.430;2023-04-04T08:40:35;103132.28;;;7.12;53.92
71774;BME280;59607;52.130;5.430;2023-04-04T08:43:04;103126.34;;;7.43;54.66
71774;BME280;59607;52.130;5.430;2023-04-04T08:45:33;103126.91;;;7.64;52.96
71774;BME280;59607;52.130;5.430;2023-04-04T08:48:02;103124.09;;;7.83;52.39
71774;BME280;59607;52.130;5.430;2023-04-04T08:50:37;103126.94;;;7.78;51.49
71774;BME280;59607;52.130;5.430;2023-04-04T08:53:06;103133.09;;;7.94;51.89
71774;BME280;59607;52.130;5.430;2023-04-04T08:55:40;103126.09;;;7.94;49.41
71774;BME280;59607;52.130;5.430;2023-04-04T08:58:07;103123.81;;;8.04;49.42
71774;BME280;59607;52.130;5.430;2023-04-04T09:00:41;103124.25;;;7.96;49.28
71774;BME280;59607;52.130;5.430;2023-04-04T09:03:13;103132.47;;;8.05;49.21
71774;BME280;59607;52.130;5.430;2023-04-04T09:05:45;103122.59;;;8.10;48.96
71774;BME280;59607;52.130;5.430;2023-04-04T09:08:12;103127.53;;;8.14;48.75
71774;BME280;59607;52.130;5.430;2023-04-04T09:10:42;103123.94;;;8.17;48.85
71774;BME280;59607;52.130;5.430;2023-04-04T09:13:09;103131.97;;;8.29;48.23
71774;BME280;59607;52.130;5.430;2023-04-04T09:15:46;103131.50;;;8.22;47.75
71774;BME280;59607;52.130;5.430;2023-04-04T09:18:16;103129.72;;;8.22;49.05
71774;BME280;59607;52.130;5.430;2023-04-04T09:20:46;103132.97;;;8.57;48.43
71774;BME280;59607;52.130;5.430;2023-04-04T09:23:18;103127.94;;;8.68;48.04
71774;BME280;59607;52.130;5.430;2023-04-04T09:25:53;103128.53;;;8.43;49.77
71774;BME280;59607;52.130;5.430;2023-04-04T09:28:41;103125.53;;;8.34;49.37
71774;BME280;59607;52.130;5.430;2023-04-04T09:31:08;103129.59;;;8.40;48.90
71774;BME280;59607;52.130;5.430;2023-04-04T09:33:42;103127.84;;;8.70;48.76
71774;BME280;59607;52.130;5.430;2023-04-04T09:36:11;103121.31;;;8.77;48.74
71774;BME280;59607;52.130;5.430;2023-04-04T09:38:40;103119.38;;;8.81;48.43
71774;BME280;59607;52.130;5.430;2023-04-04T09:41:15;103120.56;;;8.75;48.39
71774;BME280;59607;52.130;5.430;2023-04-04T09:43:51;103115.41;;;8.88;48.10
71774;BME280;59607;52.130;5.430;2023-04-04T09:46:18;103113.75;;;8.87;48.28
71774;BME280;59607;52.130;5.430;2023-04-04T09:48:51;103104.94;;;9.03;47.47
71774;BME280;59607;52.130;5.430;2023-04-04T09:51:23;103107.66;;;9.01;46.26
71774;BME280;59607;52.130;5.430;2023-04-04T09:53:52;103103.34;;;9.00;46.87
71774;BME280;59607;52.130;5.430;2023-04-04T09:56:19;103104.06;;;9.17;47.35
71774;BME280;59607;52.130;5.430;2023-04-04T09:58:49;103092.81;;;9.29;46.43
71774;BME280;59607;52.130;5.430;2023-04-04T10:01:39;103106.28;;;9.23;47.19
71774;BME280;59607;52.130;5.430;2023-04-04T10:04:12;103095.44;;;9.29;46.42
71774;BME280;59607;52.130;5.430;2023-04-04T10:06:42;103094.94;;;9.37;45.53
71774;BME280;59607;52.130;5.430;2023-04-04T10:09:09;103100.63;;;9.44;45.65
71774;BME280;59607;52.130;5.430;2023-04-04T10:11:49;103098.16;;;9.55;44.81
71774;BME280;59607;52.130;5.430;2023-04-04T10:14:16;103093.69;;;9.43;44.36
71774;BME280;59607;52.130;5.430;2023-04-04T10:16:46;103091.56;;;9.62;45.16
71774;BME280;59607;52.130;5.430;2023-04-04T10:19:13;103088.00;;;9.63;44.53
71774;BME280;59607;52.130;5.430;2023-04-04T10:21:48;103087.19;;;9.63;44.91
71774;BME280;59607;52.130;5.430;2023-04-04T10:24:15;103083.44;;;9.80;43.09
71774;BME280;59607;52.130;5.430;2023-04-04T10:26:47;103080.28;;;9.47;42.64
71774;BME280;59607;52.130;5.430;2023-04-04T10:29:16;103070.56;;;9.49;43.58
71774;BME280;59607;52.130;5.430;2023-04-04T10:31:44;103068.72;;;9.65;43.49
71774;BME280;59607;52.130;5.430;2023-04-04T10:34:24;103072.19;;;9.65;42.99
71774;BME280;59607;52.130;5.430;2023-04-04T10:37:07;103064.44;;;9.36;43.33
71774;BME280;59607;52.130;5.430;2023-04-04T10:39:43;103062.56;;;9.38;43.87
71774;BME280;59607;52.130;5.430;2023-04-04T10:42:14;103060.53;;;9.56;43.18
71774;BME280;59607;52.130;5.430;2023-04-04T10:44:46;103063.59;;;9.63;43.28
71774;BME280;59607;52.130;5.430;2023-04-04T10:47:25;103062.78;;;9.75;43.26
71774;BME280;59607;52.130;5.430;2023-04-04T10:49:55;103055.25;;;9.84;43.58
71774;BME280;59607;52.130;5.430;2023-04-04T10:52:42;103040.38;;;9.84;42.84
71774;BME280;59607;52.130;5.430;2023-04-04T10:55:12;103054.63;;;9.93;43.46
71774;BME280;59607;52.130;5.430;2023-04-04T10:57:45;103049.06;;;10.11;42.83
71774;BME280;59607;52.130;5.430;2023-04-04T11:00:18;103043.28;;;10.06;43.22
71774;BME280;59607;52.130;5.430;2023-04-04T11:02:58;103045.00;;;10.07;42.72
71774;BME280;59607;52.130;5.430;2023-04-04T11:05:39;103031.97;;;10.57;43.01
71774;BME280;59607;52.130;5.430;2023-04-04T11:08:10;103034.25;;;10.75;43.97
71774;BME280;59607;52.130;5.430;2023-04-04T11:10:43;103032.47;;;11.00;43.04
71774;BME280;59607;52.130;5.430;2023-04-04T11:13:39;103032.44;;;10.76;42.43
71774;BME280;59607;52.130;5.430;2023-04-04T11:16:13;103035.44;;;10.58;40.75
71774;BME280;59607;52.130;5.430;2023-04-04T11:21:09;103031.22;;;10.42;41.23
71774;BME280;59607;52.130;5.430;2023-04-04T11:28:57;103012.13;;;10.40;41.46
71774;BME280;59607;52.130;5.430;2023-04-04T11:31:36;103015.34;;;10.70;40.79
71774;BME280;59607;52.130;5.430;2023-04-04T11:34:11;103013.97;;;11.02;40.09
71774;BME280;59607;52.130;5.430;2023-04-04T11:36:47;103012.94;;;11.04;40.19
71774;BME280;59607;52.130;5.430;2023-04-04T11:39:21;103012.97;;;10.91;40.18
71774;BME280;59607;52.130;5.430;2023-04-04T11:42:01;103020.97;;;10.90;40.85
71774;BME280;59607;52.130;5.430;2023-04-04T11:45:05;103016.06;;;10.85;41.78
71774;BME280;59607;52.130;5.430;2023-04-04T11:47:38;103004.78;;;10.96;41.00
71774;BME280;59607;52.130;5.430;2023-04-04T11:50:08;103003.19;;;11.18;40.93
71774;BME280;59607;52.130;5.430;2023-04-04T11:52:41;102993.75;;;11.15;40.88
71774;BME280;59607;52.130;5.430;2023-04-04T11:55:15;102998.94;;;11.28;40.13
71774;BME280;59607;52.130;5.430;2023-04-04T11:57:46;102991.91;;;11.29;39.81
71774;BME280;59607;52.130;5.430;2023-04-04T12:00:37;102996.56;;;11.01;40.75
71774;BME280;59607;52.130;5.430;2023-04-04T12:03:09;102988.50;;;11.15;40.50
71774;BME280;59607;52.130;5.430;2023-04-04T12:05:43;102983.28;;;11.27;39.97
71774;BME280;59607;52.130;5.430;2023-04-04T12:08:14;102984.81;;;11.54;40.52
71774;BME280;59607;52.130;5.430;2023-04-04T12:10:41;102989.97;;;11.67;38.94
71774;BME280;59607;52.130;5.430;2023-04-04T12:13:12;102978.50;;;11.56;38.42
71774;BME280;59607;52.130;5.430;2023-04-04T12:15:41;102975.84;;;11.45;38.82
71774;BME280;59607;52.130;5.430;2023-04-04T12:18:19;102965.88;;;11.37;40.22
71774;BME280;59607;52.130;5.430;2023-04-04T12:20:56;102964.22;;;11.36;40.20
71774;BME280;59607;52.130;5.430;2023-04-04T12:23:23;102956.22;;;11.38;38.58
71774;BME280;59607;52.130;5.430;2023-04-04T12:25:50;102958.81;;;11.26;39.27
71774;BME280;59607;52.130;5.430;2023-04-04T12:28:21;102951.84;;;11.50;38.56
71774;BME280;59607;52.130;5.430;2023-04-04T12:30:48;102949.13;;;11.74;38.90
71774;BME280;59607;52.130;5.430;2023-04-04T12:33:25;102946.94;;;11.68;38.31
71774;BME280;59607;52.130;5.430;2023-04-04T12:35:52;102949.28;;;11.37;39.56
71774;BME280;59607;52.130;5.430;2023-04-04T12:38:22;102944.22;;;11.81;39.05
71774;BME280;59607;52.130;5.430;2023-04-04T12:40:52;102938.97;;;11.92;39.58
71774;BME280;59607;52.130;5.430;2023-04-04T12:43:26;102938.38;;;11.89;39.51
71774;BME280;59607;52.130;5.430;2023-04-04T12:45:56;102941.34;;;12.07;39.13
71774;BME280;59607;52.130;5.430;2023-04-04T12:48:29;102935.16;;;12.19;38.81
71774;BME280;59607;52.130;5.430;2023-04-04T12:50:59;102931.31;;;12.24;38.19
71774;BME280;59607;52.130;5.430;2023-04-04T12:53:29;102930.28;;;12.15;38.80
71774;BME280;59607;52.130;5.430;2023-04-04T12:56:03;102930.72;;;12.08;38.74
71774;BME280;59607;52.130;5.430;2023-04-04T12:58:33;102929.69;;;12.11;39.33
71774;BME280;59607;52.130;5.430;2023-04-04T13:01:03;102924.03;;;12.16;39.09
71774;BME280;59607;52.130;5.430;2023-04-04T13:03:33;102919.97;;;12.23;39.74
71774;BME280;59607;52.130;5.430;2023-04-04T13:06:15;102909.00;;;12.51;39.25
71774;BME280;59607;52.130;5.430;2023-04-04T13:08:53;102904.72;;;12.50;39.09
71774;BME280;59607;52.130;5.430;2023-04-04T13:11:58;102901.88;;;12.41;39.45
71774;BME280;59607;52.130;5.430;2023-04-04T13:15:04;102903.63;;;12.52;39.07
71774;BME280;59607;52.130;5.430;2023-04-04T13:17:44;102889.41;;;12.55;39.59
71774;BME280;59607;52.130;5.430;2023-04-04T13:20:17;102882.06;;;12.26;39.20
71774;BME280;59607;52.130;5.430;2023-04-04T13:22:58;102893.91;;;12.08;40.25
71774;BME280;59607;52.130;5.430;2023-04-04T13:25:25;102880.41;;;12.13;40.28
71774;BME280;59607;52.130;5.430;2023-04-04T13:27:54;102875.34;;;12.21;40.07
71774;BME280;59607;52.130;5.430;2023-04-04T13:30:21;102883.38;;;11.97;39.78